sensor_id;sensor_type;location;lat;lon;timestamp;P1;durP1;ratioP1;P2;durP2;ratioP2
18657;SDS011;9458;50.942;5.074;2023-05-10T00:01:56;17.00;;;10.32;;
18657;SDS011;9458;50.942;5.074;2023-05-10T00:04:43;18.60;;;10.48;;
18657;SDS011;9458;50.942;5.074;2023-05-10T00:07:15;15.88;;;11.10;;
18657;SDS011;9458;50.942;5.074;2023-05-10T00:09:48;18.20;;;10.90;;
18657;SDS011;9458;50.942;5.074;2023-05-10T00:12:16;18.38;;;10.90;;
18657;SDS011;9458;50.942;5.074;2023-05-10T00:14:48;16.33;;;10.88;;
18657;SDS011;9458;50.942;5.074;2023-05-10T00:17:19;18.15;;;11.98;;
18657;SDS011;9458;50.942;5.074;2023-05-10T00:19:56;20.45;;;11.65;;
18657;SDS011;9458;50.942;5.074;2023-05-10T00:22:30;18.55;;;11.10;;
18657;SDS011;9458;50.942;5.074;2023-05-10T00:24:58;16.83;;;11.20;;
18657;SDS011;9458;50.942;5.074;2023-05-10T00:27:25;20.20;;;11.90;;
18657;SDS011;9458;50.942;5.074;2023-05-10T00:29:55;17.20;;;11.48;;
18657;SDS011;9458;50.942;5.074;2023-05-10T00:32:29;16.88;;;11.32;;
18657;SDS011;9458;50.942;5.074;2023-05-10T00:35:02;18.33;;;12.48;;
18657;SDS011;9458;50.942;5.074;2023-05-10T00:37:33;16.65;;;12.32;;
18657;SDS011;9458;50.942;5.074;2023-05-10T00:40:01;18.63;;;11.23;;
18657;SDS011;9458;50.942;5.074;2023-05-10T00:42:39;17.17;;;10.95;;
18657;SDS011;9458;50.942;5.074;2023-05-10T00:45:07;17.83;;;10.63;;
18657;SDS011;9458;50.942;5.074;2023-05-10T00:47:37;14.93;;;10.48;;
18657;SDS011;9458;50.942;5.074;2023-05-10T00:50:14;16.75;;;10.50;;
18657;SDS011;9458;50.942;5.074;2023-05-10T00:52:52;16.48;;;10.68;;
18657;SDS011;9458;50.942;5.074;2023-05-10T00:55:20;14.93;;;9.85;;
18657;SDS011;9458;50.942;5.074;2023-05-10T00:57:52;16.02;;;10.90;;
18657;SDS011;9458;50.942;5.074;2023-05-10T01:00:23;12.23;;;9.23;;
18657;SDS011;9458;50.942;5.074;2023-05-10T01:02:53;18.70;;;9.68;;
18657;SDS011;9458;50.942;5.074;2023-05-10T01:05:28;17.50;;;9.85;;
18657;SDS011;9458;50.942;5.074;2023-05-10T01:07:57;21.48;;;9.70;;
18657;SDS011;9458;50.942;5.074;2023-05-10T01:10:25;15.68;;;9.43;;
18657;SDS011;9458;50.942;5.074;2023-05-10T01:12:54;17.63;;;10.02;;
18657;SDS011;9458;50.942;5.074;2023-05-10T01:15:22;15.00;;;9.48;;
18657;SDS011;9458;50.942;5.074;2023-05-10T01:17:53;18.75;;;9.85;;
18657;SDS011;9458;50.942;5.074;2023-05-10T01:20:22;17.30;;;10.13;;
18657;SDS011;9458;50.942;5.074;2023-05-10T01:25:59;18.15;;;10.32;;
18657;SDS011;9458;50.942;5.074;2023-05-10T01:29:00;15.90;;;10.57;;
18657;SDS011;9458;50.942;5.074;2023-05-10T01:35:02;23.40;;;10.35;;
18657;SDS011;9458;50.942;5.074;2023-05-10T01:37:37;19.85;;;11.07;;
18657;SDS011;9458;50.942;5.074;2023-05-10T01:40:26;18.08;;;11.15;;
18657;SDS011;9458;50.942;5.074;2023-05-10T01:43:11;22.27;;;11.70;;
18657;SDS011;9458;50.942;5.074;2023-05-10T01:45:49;16.88;;;10.65;;
18657;SDS011;9458;50.942;5.074;2023-05-10T01:48:30;17.10;;;10.93;;
18657;SDS011;9458;50.942;5.074;2023-05-10T01:51:01;16.27;;;11.00;;
18657;SDS011;9458;50.942;5.074;2023-05-10T01:53:31;18.95;;;11.57;;
18657;SDS011;9458;50.942;5.074;2023-05-10T01:56:04;21.13;;;11.13;;
18657;SDS011;9458;50.942;5.074;2023-05-10T01:58:35;18.55;;;11.15;;
18657;SDS011;9458;50.942;5.074;2023-05-10T02:01:06;19.58;;;11.13;;
18657;SDS011;9458;50.942;5.074;2023-05-10T02:03:39;24.63;;;12.65;;
18657;SDS011;9458;50.942;5.074;2023-05-10T02:06:11;21.13;;;11.95;;
18657;SDS011;9458;50.942;5.074;2023-05-10T02:08:41;22.77;;;12.57;;
18657;SDS011;9458;50.942;5.074;2023-05-10T02:11:10;20.55;;;11.52;;
18657;SDS011;9458;50.942;5.074;2023-05-10T02:13:42;21.20;;;12.25;;
18657;SDS011;9458;50.942;5.074;2023-05-10T02:16:20;21.00;;;12.85;;
18657;SDS011;9458;50.942;5.074;2023-05-10T02:18:53;20.55;;;11.70;;
18657;SDS011;9458;50.942;5.074;2023-05-10T02:21:25;20.90;;;11.13;;
18657;SDS011;9458;50.942;5.074;2023-05-10T02:23:55;17.13;;;11.20;;
18657;SDS011;9458;50.942;5.074;2023-05-10T02:26:24;17.38;;;11.05;;
18657;SDS011;9458;50.942;5.074;2023-05-10T02:28:53;23.48;;;12.77;;
18657;SDS011;9458;50.942;5.074;2023-05-10T02:31:22;17.65;;;11.70;;
18657;SDS011;9458;50.942;5.074;2023-05-10T02:33:50;18.40;;;12.43;;
18657;SDS011;9458;50.942;5.074;2023-05-10T02:36:19;24.00;;;13.00;;
18657;SDS011;9458;50.942;5.074;2023-05-10T02:38:50;22.88;;;13.15;;
18657;SDS011;9458;50.942;5.074;2023-05-10T02:41:22;26.50;;;13.77;;
18657;SDS011;9458;50.942;5.074;2023-05-10T02:43:51;21.85;;;11.88;;
18657;SDS011;9458;50.942;5.074;2023-05-10T02:46:23;19.42;;;11.95;;
18657;SDS011;9458;50.942;5.074;2023-05-10T02:48:53;24.60;;;12.50;;
18657;SDS011;9458;50.942;5.074;2023-05-10T02:51:25;26.33;;;12.68;;
18657;SDS011;9458;50.942;5.074;2023-05-10T02:54:06;18.80;;;11.80;;
18657;SDS011;9458;50.942;5.074;2023-05-10T02:56:40;18.95;;;13.25;;
18657;SDS011;9458;50.942;5.074;2023-05-10T02:59:13;21.55;;;12.73;;
18657;SDS011;9458;50.942;5.074;2023-05-10T03:01:41;25.65;;;12.15;;
18657;SDS011;9458;50.942;5.074;2023-05-10T03:04:10;21.58;;;12.07;;
18657;SDS011;9458;50.942;5.074;2023-05-10T03:06:40;22.65;;;12.50;;
18657;SDS011;9458;50.942;5.074;2023-05-10T03:09:09;21.70;;;12.68;;
18657;SDS011;9458;50.942;5.074;2023-05-10T03:11:43;19.73;;;12.52;;
18657;SDS011;9458;50.942;5.074;2023-05-10T03:14:31;19.50;;;12.57;;
18657;SDS011;9458;50.942;5.074;2023-05-10T03:17:11;25.58;;;12.45;;
18657;SDS011;9458;50.942;5.074;2023-05-10T03:19:47;23.13;;;13.63;;
18657;SDS011;9458;50.942;5.074;2023-05-10T03:22:21;22.83;;;13.82;;
18657;SDS011;9458;50.942;5.074;2023-05-10T03:24:55;21.38;;;12.80;;
18657;SDS011;9458;50.942;5.074;2023-05-10T03:27:26;23.90;;;13.90;;
18657;SDS011;9458;50.942;5.074;2023-05-10T03:29:55;23.73;;;13.65;;
18657;SDS011;9458;50.942;5.074;2023-05-10T03:32:25;18.45;;;12.57;;
18657;SDS011;9458;50.942;5.074;2023-05-10T03:34:55;26.98;;;14.23;;
18657;SDS011;9458;50.942;5.074;2023-05-10T03:37:23;21.08;;;13.25;;
18657;SDS011;9458;50.942;5.074;2023-05-10T03:39:50;22.42;;;13.23;;
18657;SDS011;9458;50.942;5.074;2023-05-10T03:42:19;23.52;;;13.77;;
18657;SDS011;9458;50.942;5.074;2023-05-10T03:44:46;25.90;;;13.63;;
18657;SDS011;9458;50.942;5.074;2023-05-10T03:47:14;22.50;;;13.18;;
18657;SDS011;9458;50.942;5.074;2023-05-10T03:49:44;20.33;;;12.70;;
18657;SDS011;9458;50.942;5.074;2023-05-10T03:52:12;22.27;;;12.73;;
18657;SDS011;9458;50.942;5.074;2023-05-10T03:54:39;22.17;;;13.30;;
18657;SDS011;9458;50.942;5.074;2023-05-10T03:57:07;22.92;;;13.77;;
18657;SDS011;9458;50.942;5.074;2023-05-10T03:59:36;24.33;;;13.60;;
18657;SDS011;9458;50.942;5.074;2023-05-10T04:02:04;18.77;;;12.38;;
18657;SDS011;9458;50.942;5.074;2023-05-10T04:04:32;19.73;;;13.95;;
18657;SDS011;9458;50.942;5.074;2023-05-10T04:07:00;24.15;;;13.80;;
18657;SDS011;9458;50.942;5.074;2023-05-10T04:09:27;23.15;;;12.85;;
18657;SDS011;9458;50.942;5.074;2023-05-10T04:11:54;24.65;;;13.85;;
18657;SDS011;9458;50.942;5.074;2023-05-10T04:14:22;21.67;;;12.85;;
18657;SDS011;9458;50.942;5.074;2023-05-10T04:16:51;18.98;;;12.10;;
18657;SDS011;9458;50.942;5.074;2023-05-10T04:19:18;19.00;;;11.95;;
18657;SDS011;9458;50.942;5.074;2023-05-10T04:21:46;19.00;;;11.52;;
18657;SDS011;9458;50.942;5.074;2023-05-10T04:24:13;23.00;;;12.35;;
18657;SDS011;9458;50.942;5.074;2023-05-10T04:26:42;21.33;;;13.13;;
18657;SDS011;9458;50.942;5.074;2023-05-10T04:29:10;27.55;;;14.02;;
18657;SDS011;9458;50.942;5.074;2023-05-10T04:31:37;22.58;;;14.15;;
18657;SDS011;9458;50.942;5.074;2023-05-10T04:34:06;26.13;;;15.50;;
18657;SDS011;9458;50.942;5.074;2023-05-10T04:36:34;23.00;;;14.30;;
18657;SDS011;9458;50.942;5.074;2023-05-10T04:39:02;23.25;;;14.85;;
18657;SDS011;9458;50.942;5.074;2023-05-10T04:41:29;30.90;;;16.33;;
18657;SDS011;9458;50.942;5.074;2023-05-10T04:43:57;25.73;;;15.27;;
18657;SDS011;9458;50.942;5.074;2023-05-10T04:46:24;30.92;;;15.07;;
18657;SDS011;9458;50.942;5.074;2023-05-10T04:48:52;25.77;;;15.07;;
18657;SDS011;9458;50.942;5.074;2023-05-10T04:51:20;30.10;;;15.65;;
18657;SDS011;9458;50.942;5.074;2023-05-10T04:53:48;29.70;;;16.30;;
18657;SDS011;9458;50.942;5.074;2023-05-10T04:56:16;26.05;;;16.02;;
18657;SDS011;9458;50.942;5.074;2023-05-10T04:58:43;32.25;;;16.67;;
18657;SDS011;9458;50.942;5.074;2023-05-10T05:01:11;29.90;;;16.88;;
18657;SDS011;9458;50.942;5.074;2023-05-10T05:03:39;30.73;;;15.85;;
18657;SDS011;9458;50.942;5.074;2023-05-10T05:06:08;32.17;;;15.93;;
18657;SDS011;9458;50.942;5.074;2023-05-10T05:08:36;32.80;;;16.27;;
18657;SDS011;9458;50.942;5.074;2023-05-10T05:11:04;29.25;;;15.77;;
18657;SDS011;9458;50.942;5.074;2023-05-10T05:13:31;31.75;;;15.85;;
18657;SDS011;9458;50.942;5.074;2023-05-10T05:16:01;33.40;;;16.45;;
18657;SDS011;9458;50.942;5.074;2023-05-10T05:18:29;28.65;;;15.68;;
18657;SDS011;9458;50.942;5.074;2023-05-10T05:20:56;32.25;;;16.50;;
18657;SDS011;9458;50.942;5.074;2023-05-10T05:23:24;32.13;;;16.80;;
18657;SDS011;9458;50.942;5.074;2023-05-10T05:25:53;35.53;;;17.30;;
18657;SDS011;9458;50.942;5.074;2023-05-10T05:28:26;33.58;;;17.27;;
18657;SDS011;9458;50.942;5.074;2023-05-10T05:30:58;38.78;;;17.98;;
18657;SDS011;9458;50.942;5.074;2023-05-10T05:33:25;44.40;;;19.55;;
18657;SDS011;9458;50.942;5.074;2023-05-10T05:35:54;41.80;;;19.65;;
18657;SDS011;9458;50.942;5.074;2023-05-10T05:38:22;46.78;;;20.50;;
18657;SDS011;9458;50.942;5.074;2023-05-10T05:40:50;42.75;;;19.77;;
18657;SDS011;9458;50.942;5.074;2023-05-10T05:43:19;44.25;;;20.35;;
18657;SDS011;9458;50.942;5.074;2023-05-10T05:45:46;48.40;;;20.75;;
18657;SDS011;9458;50.942;5.074;2023-05-10T05:48:14;57.35;;;24.13;;
18657;SDS011;9458;50.942;5.074;2023-05-10T05:50:41;66.15;;;25.05;;
18657;SDS011;9458;50.942;5.074;2023-05-10T05:53:09;75.70;;;28.90;;
18657;SDS011;9458;50.942;5.074;2023-05-10T05:55:37;80.50;;;27.33;;
18657;SDS011;9458;50.942;5.074;2023-05-10T05:58:04;71.88;;;28.00;;
18657;SDS011;9458;50.942;5.074;2023-05-10T06:00:33;70.95;;;27.15;;
18657;SDS011;9458;50.942;5.074;2023-05-10T06:03:05;73.45;;;27.35;;
18657;SDS011;9458;50.942;5.074;2023-05-10T06:05:37;72.30;;;26.17;;
18657;SDS011;9458;50.942;5.074;2023-05-10T06:08:14;63.55;;;25.33;;
18657;SDS011;9458;50.942;5.074;2023-05-10T06:10:43;62.33;;;24.92;;
18657;SDS011;9458;50.942;5.074;2023-05-10T06:13:10;65.05;;;24.95;;
18657;SDS011;9458;50.942;5.074;2023-05-10T06:15:42;58.10;;;23.40;;
18657;SDS011;9458;50.942;5.074;2023-05-10T06:18:09;55.55;;;23.55;;
18657;SDS011;9458;50.942;5.074;2023-05-10T06:20:37;61.47;;;25.98;;
18657;SDS011;9458;50.942;5.074;2023-05-10T06:23:04;65.30;;;25.73;;
18657;SDS011;9458;50.942;5.074;2023-05-10T06:25:32;62.58;;;23.60;;
18657;SDS011;9458;50.942;5.074;2023-05-10T06:27:59;64.50;;;23.77;;
18657;SDS011;9458;50.942;5.074;2023-05-10T06:30:29;64.75;;;23.63;;
18657;SDS011;9458;50.942;5.074;2023-05-10T06:33:09;58.00;;;23.42;;
18657;SDS011;9458;50.942;5.074;2023-05-10T06:35:37;61.38;;;23.42;;
18657;SDS011;9458;50.942;5.074;2023-05-10T06:38:04;62.88;;;23.77;;
18657;SDS011;9458;50.942;5.074;2023-05-10T06:40:32;66.18;;;24.42;;
18657;SDS011;9458;50.942;5.074;2023-05-10T06:42:59;65.45;;;25.02;;
18657;SDS011;9458;50.942;5.074;2023-05-10T06:45:27;67.70;;;24.80;;
18657;SDS011;9458;50.942;5.074;2023-05-10T06:47:54;54.67;;;23.15;;
18657;SDS011;9458;50.942;5.074;2023-05-10T06:50:23;51.83;;;22.58;;
18657;SDS011;9458;50.942;5.074;2023-05-10T06:52:51;48.70;;;21.17;;
18657;SDS011;9458;50.942;5.074;2023-05-10T06:55:18;51.28;;;22.13;;
18657;SDS011;9458;50.942;5.074;2023-05-10T06:57:48;48.92;;;20.73;;
18657;SDS011;9458;50.942;5.074;2023-05-10T07:00:16;47.35;;;20.58;;
18657;SDS011;9458;50.942;5.074;2023-05-10T07:02:52;48.55;;;21.17;;
18657;SDS011;9458;50.942;5.074;2023-05-10T07:05:26;43.95;;;20.42;;
18657;SDS011;9458;50.942;5.074;2023-05-10T07:07:54;47.30;;;20.95;;
18657;SDS011;9458;50.942;5.074;2023-05-10T07:10:22;43.42;;;21.70;;
18657;SDS011;9458;50.942;5.074;2023-05-10T07:12:50;43.67;;;19.63;;
18657;SDS011;9458;50.942;5.074;2023-05-10T07:15:18;42.63;;;20.35;;
18657;SDS011;9458;50.942;5.074;2023-05-10T07:17:45;41.05;;;21.13;;
18657;SDS011;9458;50.942;5.074;2023-05-10T07:20:13;41.72;;;19.58;;
18657;SDS011;9458;50.942;5.074;2023-05-10T07:22:42;41.22;;;19.90;;
18657;SDS011;9458;50.942;5.074;2023-05-10T07:25:11;40.40;;;20.15;;
18657;SDS011;9458;50.942;5.074;2023-05-10T07:27:39;40.85;;;18.90;;
18657;SDS011;9458;50.942;5.074;2023-05-10T07:30:07;37.42;;;18.70;;
18657;SDS011;9458;50.942;5.074;2023-05-10T07:32:35;35.83;;;19.25;;
18657;SDS011;9458;50.942;5.074;2023-05-10T07:35:02;36.70;;;17.83;;
18657;SDS011;9458;50.942;5.074;2023-05-10T07:37:30;34.05;;;18.40;;
18657;SDS011;9458;50.942;5.074;2023-05-10T07:39:59;35.17;;;18.13;;
18657;SDS011;9458;50.942;5.074;2023-05-10T07:42:27;32.83;;;16.80;;
18657;SDS011;9458;50.942;5.074;2023-05-10T07:44:55;30.40;;;17.33;;
18657;SDS011;9458;50.942;5.074;2023-05-10T07:47:23;32.72;;;17.42;;
18657;SDS011;9458;50.942;5.074;2023-05-10T07:49:50;32.92;;;17.98;;
18657;SDS011;9458;50.942;5.074;2023-05-10T07:52:18;28.27;;;17.10;;
18657;SDS011;9458;50.942;5.074;2023-05-10T07:54:45;27.40;;;17.38;;
18657;SDS011;9458;50.942;5.074;2023-05-10T07:57:15;18.25;;;11.68;;
18657;SDS011;9458;50.942;5.074;2023-05-10T07:59:42;12.20;;;8.38;;
18657;SDS011;9458;50.942;5.074;2023-05-10T08:02:11;8.82;;;5.80;;
18657;SDS011;9458;50.942;5.074;2023-05-10T08:04:38;6.75;;;4.95;;
18657;SDS011;9458;50.942;5.074;2023-05-10T08:07:06;6.72;;;4.60;;
18657;SDS011;9458;50.942;5.074;2023-05-10T08:09:33;4.88;;;4.07;;
18657;SDS011;9458;50.942;5.074;2023-05-10T08:12:00;4.70;;;3.80;;
18657;SDS011;9458;50.942;5.074;2023-05-10T08:14:29;4.53;;;3.67;;
18657;SDS011;9458;50.942;5.074;2023-05-10T08:16:57;5.95;;;4.03;;
18657;SDS011;9458;50.942;5.074;2023-05-10T08:19:25;4.43;;;3.53;;
18657;SDS011;9458;50.942;5.074;2023-05-10T08:21:52;4.72;;;4.20;;
18657;SDS011;9458;50.942;5.074;2023-05-10T08:24:20;7.78;;;4.50;;
18657;SDS011;9458;50.942;5.074;2023-05-10T08:26:51;4.65;;;4.25;;
18657;SDS011;9458;50.942;5.074;2023-05-10T08:29:18;6.00;;;4.20;;
18657;SDS011;9458;50.942;5.074;2023-05-10T08:31:47;5.80;;;4.15;;
18657;SDS011;9458;50.942;5.074;2023-05-10T08:34:15;5.13;;;3.90;;
18657;SDS011;9458;50.942;5.074;2023-05-10T08:36:42;6.95;;;5.28;;
18657;SDS011;9458;50.942;5.074;2023-05-10T08:39:09;5.22;;;4.57;;
18657;SDS011;9458;50.942;5.074;2023-05-10T08:41:37;7.93;;;5.05;;
18657;SDS011;9458;50.942;5.074;2023-05-10T08:44:05;5.20;;;4.70;;
18657;SDS011;9458;50.942;5.074;2023-05-10T08:46:35;9.27;;;5.05;;
18657;SDS011;9458;50.942;5.074;2023-05-10T08:49:07;7.72;;;5.47;;
18657;SDS011;9458;50.942;5.074;2023-05-10T08:51:36;8.40;;;4.72;;
18657;SDS011;9458;50.942;5.074;2023-05-10T08:54:07;5.85;;;4.57;;
18657;SDS011;9458;50.942;5.074;2023-05-10T08:56:34;5.15;;;4.07;;
18657;SDS011;9458;50.942;5.074;2023-05-10T08:59:02;6.00;;;4.63;;
18657;SDS011;9458;50.942;5.074;2023-05-10T09:01:29;8.02;;;4.47;;
18657;SDS011;9458;50.942;5.074;2023-05-10T09:04:00;7.57;;;5.00;;
18657;SDS011;9458;50.942;5.074;2023-05-10T09:06:31;7.10;;;4.82;;
18657;SDS011;9458;50.942;5.074;2023-05-10T09:08:59;7.28;;;5.53;;
18657;SDS011;9458;50.942;5.074;2023-05-10T09:11:26;9.63;;;6.10;;
18657;SDS011;9458;50.942;5.074;2023-05-10T09:13:55;9.73;;;5.43;;
18657;SDS011;9458;50.942;5.074;2023-05-10T09:16:23;7.57;;;5.85;;
18657;SDS011;9458;50.942;5.074;2023-05-10T09:18:51;9.35;;;5.90;;
18657;SDS011;9458;50.942;5.074;2023-05-10T09:21:19;10.25;;;6.40;;
18657;SDS011;9458;50.942;5.074;2023-05-10T09:23:48;9.93;;;6.13;;
18657;SDS011;9458;50.942;5.074;2023-05-10T09:26:21;8.43;;;6.10;;
18657;SDS011;9458;50.942;5.074;2023-05-10T09:28:51;12.68;;;6.78;;
18657;SDS011;9458;50.942;5.074;2023-05-10T09:31:19;11.38;;;6.80;;
18657;SDS011;9458;50.942;5.074;2023-05-10T09:33:47;12.27;;;7.22;;
18657;SDS011;9458;50.942;5.074;2023-05-10T09:36:15;11.43;;;7.80;;
18657;SDS011;9458;50.942;5.074;2023-05-10T09:38:48;10.40;;;7.60;;
18657;SDS011;9458;50.942;5.074;2023-05-10T09:41:17;13.48;;;7.97;;
18657;SDS011;9458;50.942;5.074;2023-05-10T09:43:46;13.25;;;8.18;;
18657;SDS011;9458;50.942;5.074;2023-05-10T09:46:14;13.55;;;7.55;;
18657;SDS011;9458;50.942;5.074;2023-05-10T09:48:43;14.23;;;8.43;;
18657;SDS011;9458;50.942;5.074;2023-05-10T09:51:18;13.57;;;8.73;;
18657;SDS011;9458;50.942;5.074;2023-05-10T09:53:48;14.18;;;8.85;;
18657;SDS011;9458;50.942;5.074;2023-05-10T09:56:36;14.00;;;8.82;;
18657;SDS011;9458;50.942;5.074;2023-05-10T09:59:06;14.60;;;8.55;;
18657;SDS011;9458;50.942;5.074;2023-05-10T10:01:34;12.25;;;8.35;;
18657;SDS011;9458;50.942;5.074;2023-05-10T10:04:02;12.77;;;8.27;;
18657;SDS011;9458;50.942;5.074;2023-05-10T10:06:41;13.20;;;8.85;;
18657;SDS011;9458;50.942;5.074;2023-05-10T10:09:22;16.92;;;8.70;;
18657;SDS011;9458;50.942;5.074;2023-05-10T10:11:52;12.32;;;8.15;;
18657;SDS011;9458;50.942;5.074;2023-05-10T10:14:21;15.05;;;9.48;;
18657;SDS011;9458;50.942;5.074;2023-05-10T10:16:49;11.82;;;7.57;;
18657;SDS011;9458;50.942;5.074;2023-05-10T10:19:16;10.52;;;7.63;;
18657;SDS011;9458;50.942;5.074;2023-05-10T10:21:45;11.73;;;7.85;;
18657;SDS011;9458;50.942;5.074;2023-05-10T10:24:13;11.98;;;7.70;;
18657;SDS011;9458;50.942;5.074;2023-05-10T10:26:42;10.93;;;7.50;;
18657;SDS011;9458;50.942;5.074;2023-05-10T10:29:16;9.77;;;7.15;;
18657;SDS011;9458;50.942;5.074;2023-05-10T10:31:52;11.55;;;7.55;;
18657;SDS011;9458;50.942;5.074;2023-05-10T10:34:25;10.68;;;7.20;;
18657;SDS011;9458;50.942;5.074;2023-05-10T10:36:54;8.07;;;6.63;;
18657;SDS011;9458;50.942;5.074;2023-05-10T10:39:23;8.10;;;6.68;;
18657;SDS011;9458;50.942;5.074;2023-05-10T10:41:54;7.88;;;6.38;;
18657;SDS011;9458;50.942;5.074;2023-05-10T10:44:22;8.90;;;7.03;;
18657;SDS011;9458;50.942;5.074;2023-05-10T10:47:20;7.68;;;6.18;;
18657;SDS011;9458;50.942;5.074;2023-05-10T10:49:51;9.20;;;5.85;;
18657;SDS011;9458;50.942;5.074;2023-05-10T10:52:30;7.82;;;5.30;;
18657;SDS011;9458;50.942;5.074;2023-05-10T10:55:00;7.18;;;5.80;;
18657;SDS011;9458;50.942;5.074;2023-05-10T10:57:32;5.30;;;4.63;;
18657;SDS011;9458;50.942;5.074;2023-05-10T11:00:19;8.32;;;5.50;;
18657;SDS011;9458;50.942;5.074;2023-05-10T11:02:56;7.68;;;5.70;;
18657;SDS011;9458;50.942;5.074;2023-05-10T11:08:11;5.22;;;4.72;;
18657;SDS011;9458;50.942;5.074;2023-05-10T11:10:52;4.60;;;4.18;;
18657;SDS011;9458;50.942;5.074;2023-05-10T11:13:30;5.75;;;4.90;;
18657;SDS011;9458;50.942;5.074;2023-05-10T11:15:59;5.55;;;4.30;;
18657;SDS011;9458;50.942;5.074;2023-05-10T11:18:40;5.00;;;4.28;;
18657;SDS011;9458;50.942;5.074;2023-05-10T11:21:20;4.40;;;3.83;;
18657;SDS011;9458;50.942;5.074;2023-05-10T11:23:48;4.00;;;3.53;;
18657;SDS011;9458;50.942;5.074;2023-05-10T11:26:16;3.70;;;3.30;;
18657;SDS011;9458;50.942;5.074;2023-05-10T11:28:50;3.20;;;2.90;;
18657;SDS011;9458;50.942;5.074;2023-05-10T11:31:21;3.22;;;3.00;;
18657;SDS011;9458;50.942;5.074;2023-05-10T11:33:51;3.50;;;3.10;;
18657;SDS011;9458;50.942;5.074;2023-05-10T11:36:21;3.38;;;3.08;;
18657;SDS011;9458;50.942;5.074;2023-05-10T11:38:51;3.10;;;2.90;;
18657;SDS011;9458;50.942;5.074;2023-05-10T11:41:19;2.83;;;2.63;;
18657;SDS011;9458;50.942;5.074;2023-05-10T11:43:50;2.70;;;2.47;;
18657;SDS011;9458;50.942;5.074;2023-05-10T11:46:19;3.10;;;2.80;;
18657;SDS011;9458;50.942;5.074;2023-05-10T11:48:49;3.17;;;2.72;;
18657;SDS011;9458;50.942;5.074;2023-05-10T11:51:19;3.08;;;2.78;;
18657;SDS011;9458;50.942;5.074;2023-05-10T11:53:48;2.90;;;2.63;;
18657;SDS011;9458;50.942;5.074;2023-05-10T11:56:17;2.90;;;2.45;;
18657;SDS011;9458;50.942;5.074;2023-05-10T11:58:51;2.95;;;2.72;;
18657;SDS011;9458;50.942;5.074;2023-05-10T12:01:22;2.67;;;2.47;;
18657;SDS011;9458;50.942;5.074;2023-05-10T12:03:51;2.92;;;2.33;;
18657;SDS011;9458;50.942;5.074;2023-05-10T12:06:21;2.67;;;2.47;;
18657;SDS011;9458;50.942;5.074;2023-05-10T12:08:48;2.60;;;2.40;;
18657;SDS011;9458;50.942;5.074;2023-05-10T12:11:17;3.85;;;2.35;;
18657;SDS011;9458;50.942;5.074;2023-05-10T12:13:47;2.88;;;2.20;;
18657;SDS011;9458;50.942;5.074;2023-05-10T12:16:17;2.40;;;2.20;;
18657;SDS011;9458;50.942;5.074;2023-05-10T12:18:47;2.50;;;2.30;;
18657;SDS011;9458;50.942;5.074;2023-05-10T12:21:16;2.28;;;1.95;;
18657;SDS011;9458;50.942;5.074;2023-05-10T12:23:45;2.25;;;2.05;;
18657;SDS011;9458;50.942;5.074;2023-05-10T12:26:13;2.55;;;2.15;;
18657;SDS011;9458;50.942;5.074;2023-05-10T12:28:41;2.05;;;1.92;;
18657;SDS011;9458;50.942;5.074;2023-05-10T12:31:08;4.45;;;2.65;;
18657;SDS011;9458;50.942;5.074;2023-05-10T12:33:38;2.97;;;1.88;;
18657;SDS011;9458;50.942;5.074;2023-05-10T12:36:08;2.58;;;1.92;;
18657;SDS011;9458;50.942;5.074;2023-05-10T12:38:36;2.30;;;2.00;;
18657;SDS011;9458;50.942;5.074;2023-05-10T12:41:05;1.60;;;1.50;;
18657;SDS011;9458;50.942;5.074;2023-05-10T12:43:34;1.52;;;1.42;;
18657;SDS011;9458;50.942;5.074;2023-05-10T12:46:06;1.77;;;1.67;;
18657;SDS011;9458;50.942;5.074;2023-05-10T12:48:34;2.70;;;1.50;;
18657;SDS011;9458;50.942;5.074;2023-05-10T12:51:04;1.50;;;1.30;;
18657;SDS011;9458;50.942;5.074;2023-05-10T12:53:35;1.17;;;1.10;;
18657;SDS011;9458;50.942;5.074;2023-05-10T12:56:03;1.60;;;1.50;;
18657;SDS011;9458;50.942;5.074;2023-05-10T12:58:31;1.60;;;1.50;;
18657;SDS011;9458;50.942;5.074;2023-05-10T13:00:59;1.60;;;1.50;;
18657;SDS011;9458;50.942;5.074;2023-05-10T13:03:28;1.58;;;1.33;;
18657;SDS011;9458;50.942;5.074;2023-05-10T13:05:56;1.60;;;1.50;;
18657;SDS011;9458;50.942;5.074;2023-05-10T13:08:25;2.55;;;1.40;;
18657;SDS011;9458;50.942;5.074;2023-05-10T13:10:55;1.40;;;1.30;;
18657;SDS011;9458;50.942;5.074;2023-05-10T13:13:22;1.42;;;1.33;;
18657;SDS011;9458;50.942;5.074;2023-05-10T13:15:50;1.75;;;1.65;;
18657;SDS011;9458;50.942;5.074;2023-05-10T13:18:17;1.83;;;1.55;;
18657;SDS011;9458;50.942;5.074;2023-05-10T13:20:45;2.08;;;1.50;;
18657;SDS011;9458;50.942;5.074;2023-05-10T13:23:15;1.77;;;1.27;;
18657;SDS011;9458;50.942;5.074;2023-05-10T13:25:43;1.65;;;1.55;;
18657;SDS011;9458;50.942;5.074;2023-05-10T13:28:11;7.55;;;1.23;;
18657;SDS011;9458;50.942;5.074;2023-05-10T13:30:38;2.08;;;0.85;;
18657;SDS011;9458;50.942;5.074;2023-05-10T13:33:06;1.50;;;0.90;;
18657;SDS011;9458;50.942;5.074;2023-05-10T13:35:33;1.10;;;1.00;;
18657;SDS011;9458;50.942;5.074;2023-05-10T13:38:00;1.13;;;1.00;;
18657;SDS011;9458;50.942;5.074;2023-05-10T13:40:28;1.02;;;1.02;;
18657;SDS011;9458;50.942;5.074;2023-05-10T13:42:58;1.45;;;1.33;;
18657;SDS011;9458;50.942;5.074;2023-05-10T13:45:26;3.20;;;1.60;;
18657;SDS011;9458;50.942;5.074;2023-05-10T13:47:53;1.75;;;1.42;;
18657;SDS011;9458;50.942;5.074;2023-05-10T13:50:21;1.77;;;1.60;;
18657;SDS011;9458;50.942;5.074;2023-05-10T13:52:48;1.63;;;1.52;;
18657;SDS011;9458;50.942;5.074;2023-05-10T13:55:15;1.70;;;1.60;;
18657;SDS011;9458;50.942;5.074;2023-05-10T13:57:44;1.80;;;1.70;;
18657;SDS011;9458;50.942;5.074;2023-05-10T14:00:13;1.85;;;1.75;;
18657;SDS011;9458;50.942;5.074;2023-05-10T14:02:45;1.70;;;1.60;;
18657;SDS011;9458;50.942;5.074;2023-05-10T14:05:16;2.25;;;1.80;;
18657;SDS011;9458;50.942;5.074;2023-05-10T14:07:43;2.22;;;2.05;;
18657;SDS011;9458;50.942;5.074;2023-05-10T14:10:10;2.35;;;1.60;;
18657;SDS011;9458;50.942;5.074;2023-05-10T14:12:37;1.90;;;1.80;;
18657;SDS011;9458;50.942;5.074;2023-05-10T14:15:05;1.77;;;1.67;;
18657;SDS011;9458;50.942;5.074;2023-05-10T14:17:38;2.10;;;1.90;;
18657;SDS011;9458;50.942;5.074;2023-05-10T14:20:06;2.30;;;2.10;;
18657;SDS011;9458;50.942;5.074;2023-05-10T14:22:34;1.90;;;1.80;;
18657;SDS011;9458;50.942;5.074;2023-05-10T14:25:02;2.42;;;2.13;;
18657;SDS011;9458;50.942;5.074;2023-05-10T14:27:31;3.13;;;2.00;;
18657;SDS011;9458;50.942;5.074;2023-05-10T14:29:58;2.70;;;1.95;;
18657;SDS011;9458;50.942;5.074;2023-05-10T14:32:26;1.90;;;1.75;;
18657;SDS011;9458;50.942;5.074;2023-05-10T14:34:55;2.30;;;1.95;;
18657;SDS011;9458;50.942;5.074;2023-05-10T14:37:23;1.92;;;1.83;;
18657;SDS011;9458;50.942;5.074;2023-05-10T14:39:51;2.17;;;2.03;;
18657;SDS011;9458;50.942;5.074;2023-05-10T14:42:19;1.92;;;1.63;;
18657;SDS011;9458;50.942;5.074;2023-05-10T14:44:47;2.30;;;2.10;;
18657;SDS011;9458;50.942;5.074;2023-05-10T14:47:14;2.85;;;2.50;;
18657;SDS011;9458;50.942;5.074;2023-05-10T14:49:43;2.53;;;2.33;;
18657;SDS011;9458;50.942;5.074;2023-05-10T14:52:12;4.30;;;2.42;;
18657;SDS011;9458;50.942;5.074;2023-05-10T14:54:41;2.63;;;2.42;;
18657;SDS011;9458;50.942;5.074;2023-05-10T14:57:09;3.25;;;2.95;;
18657;SDS011;9458;50.942;5.074;2023-05-10T14:59:37;3.15;;;2.60;;
18657;SDS011;9458;50.942;5.074;2023-05-10T15:02:05;3.63;;;2.70;;
18657;SDS011;9458;50.942;5.074;2023-05-10T15:04:33;3.55;;;2.80;;
18657;SDS011;9458;50.942;5.074;2023-05-10T15:07:02;3.45;;;3.10;;
18657;SDS011;9458;50.942;5.074;2023-05-10T15:09:31;3.35;;;3.05;;
18657;SDS011;9458;50.942;5.074;2023-05-10T15:12:01;4.95;;;3.25;;